This is the latest recevied weather packets stored in our database for station/object WC0AA-WX. If no packets are shown the sender has not sent any weather packets the latest 10 day(s).
| Time | Temp. | Humidity | Pressure | Rain* | Wind** | Luminosity | Snow |
|---|---|---|---|---|---|---|---|
| 1788315991 | 26.67° C | 64% | 1012.1 hPa | 0 mm | - | - | - |
| 1788313561 | 27.78° C | 62% | 1011.7 hPa | 0 mm | - | - | - |
| 1788261111 | 22.22° C | 78% | 1014.4 hPa | 0 mm | - | - | - |
| 1788259281 | 22.78° C | 77% | 1014.4 hPa | 0 mm | - | - | - |
| 1788255650 | 23.89° C | 72% | 1014.3 hPa | 0 mm | - | - | - |
| 1788255050 | 23.89° C | 72% | 1014.3 hPa | 0 mm | - | - | - |
| 1788252650 | 24.44° C | 70% | 1014.1 hPa | 0 mm | - | - | - |
| 1788251420 | 24.44° C | 69% | 1014.1 hPa | 0 mm | - | - | - |
| 1788244159 | 26.11° C | 64% | 1014.1 hPa | 0 mm | - | - | - |
| 1788241158 | 26.67° C | 64% | 1014.2 hPa | 0 mm | - | - | - |
| 1788239357 | 26.67° C | 66% | 1014.2 hPa | 0 mm | - | - | - |
| 1788236927 | 26.67° C | 69% | 1014.1 hPa | 0 mm | - | - | - |
| 1788236327 | 27.22° C | 69% | 1014.1 hPa | 0 mm | - | - | - |
| 1788235127 | 27.22° C | 72% | 1013.9 hPa | 0 mm | - | - | - |
| 1788234529 | 27.22° C | 72% | 1013.8 hPa | 0 mm | - | - | - |
| 1788233298 | 27.22° C | 74% | 1013.6 hPa | 0 mm | - | - | - |
| 1788232697 | 26.67° C | 79% | 1013.5 hPa | 0 mm | - | - | - |
| 1788232097 | 27.22° C | 74% | 1013.3 hPa | 0 mm | - | - | - |
| 1788230868 | 27.78° C | 74% | 1013.2 hPa | 0 mm | - | - | - |
| 1788229066 | 28.33° C | 73% | 1012.8 hPa | 0 mm | - | - | - |
| 1788228466 | 28.89° C | 73% | 1012.8 hPa | 0 mm | - | - | - |
| 1788227266 | 29.44° C | 72% | 1012.8 hPa | 0 mm | - | - | - |
| 1788226666 | 29.44° C | 71% | 1012.7 hPa | 0 mm | - | - | - |
| 1788226066 | 30.56° C | 68% | 1012.6 hPa | 0 mm | - | - | - |
| 1788221865 | 34.44° C | 56% | 1012.6 hPa | 0 mm | - | - | - |
* Rain latest hour (hover to see other rain measurements)
** Current wind speed in m/s (hover to see current wind gust speed)